M I D A S
Marine Information and Data Acquisition System
Tripno 1912 of the Zeeleeuw from 2010-07-01 05:14:20 to 2010-07-01 14:13:49
Back to CruiseResearch ActivitiesStationsMapUnderway DataData graphs

EquipmentUnitsComment
TimeDGPSUTC
LatitudeDGPSDM.mWGS84
LongitudeDGPSDM.mWGS84
HeadingGyrodeg 
SOGDGPSknotsSpeed over ground
COGDGPSdegCourse over ground
DepthEcho soundermeters200 kHz
Missing or incorrect values are displayed as -999
Navigation data collected by the RV Zeeleeuw from 2010-07-01 05:06:50 to 2010-07-01 14:21:27
Time Latitude Longitude Heading SOG COG Depth
2010-07-01 05:07:59 51°13.672 2°55.916 112.5 2.4 293 -999
2010-07-01 05:08:59 51°13.688 2°55.84 104.7 3.4 287 -999
2010-07-01 05:09:59 51°13.699 2°55.75 92.3 3.2 278 -999
2010-07-01 05:10:57 51°13.701 2°55.714 69 0.3 344 17.5
2010-07-01 05:11:55 51°13.727 2°55.726 6.8 2.9 359 14.7
2010-07-01 05:12:55 51°13.791 2°55.676 329.6 5.6 329 13
2010-07-01 05:13:55 51°13.884 2°55.596 334.9 6.8 333 12.7
2010-07-01 05:14:55 51°13.989 2°55.518 338 7.1 336 12.8
2010-07-01 05:15:55 51°14.102 2°55.442 337.7 7.5 336 12.7
2010-07-01 05:16:55 51°14.214 2°55.343 329.4 7.8 328 12.7
2010-07-01 05:17:55 51°14.327 2°55.224 326.6 8.6 325 12.5
2010-07-01 05:18:55 51°14.455 2°55.097 330.2 9.3 329 12.9
2010-07-01 05:19:55 51°14.597 2°54.967 330.7 10.5 333 13.3
2010-07-01 05:20:55 51°14.754 2°54.83 325.3 11 329 13.1
2010-07-01 05:21:55 51°14.911 2°54.672 322.4 11.3 326 11.2
2010-07-01 05:22:55 51°15.067 2°54.493 318.7 11.8 323 10.7
2010-07-01 05:23:55 51°15.225 2°54.305 319.3 11.8 322 10.9
2010-07-01 05:24:55 51°15.381 2°54.11 318.4 12.2 320 11.4
2010-07-01 05:25:55 51°15.541 2°53.897 318.2 13 320 12
2010-07-01 05:26:55 51°15.715 2°53.671 319.4 13.6 323 12.7
2010-07-01 05:27:55 51°15.893 2°53.45 319.2 13.5 322 12.9
2010-07-01 05:28:55 51°16.087 2°53.261 331.4 13.8 334 13
2010-07-01 05:29:55 51°16.301 2°53.119 334 13.8 337 13.4
2010-07-01 05:30:55 51°16.513 2°52.977 335.1 13.9 338 12.9
2010-07-01 05:31:55 51°16.728 2°52.839 336.5 14 341 11.9
2010-07-01 05:32:55 51°16.953 2°52.735 342.2 14.1 344 10.9
2010-07-01 05:33:55 51°17.181 2°52.641 346.3 14.1 347 11.2
2010-07-01 05:34:55 51°17.412 2°52.581 351.8 14 352 11.5
2010-07-01 05:35:55 51°17.641 2°52.529 351.4 13.9 351 11.7
2010-07-01 05:36:55 51°17.871 2°52.512 6.1 13.9 9 11.7
2010-07-01 05:37:55 51°18.099 2°52.585 12.7 14 13 11.9
2010-07-01 05:38:55 51°18.328 2°52.661 12.1 14.1 12 12.5
2010-07-01 05:39:55 51°18.557 2°52.732 11.4 14.1 11 12.6
2010-07-01 05:40:55 51°18.787 2°52.8 10.9 14.1 11 13
2010-07-01 05:41:55 51°19.016 2°52.868 10.9 14 11 13.5
2010-07-01 05:42:55 51°19.246 2°52.932 10.8 14 10 14.3
2010-07-01 05:43:55 51°19.476 2°52.998 10.1 14 10 15.3
2010-07-01 05:44:55 51°19.707 2°53.062 10.3 14 10 16.1
2010-07-01 05:45:55 51°19.937 2°53.125 9.9 14.1 9 17
2010-07-01 05:46:55 51°20.166 2°53.19 10 13.9 10 17.3
2010-07-01 05:47:55 51°20.396 2°53.251 10.2 14 9 17.4
2010-07-01 05:48:55 51°20.626 2°53.313 9.8 14 9 17.5
2010-07-01 05:49:55 51°20.856 2°53.376 10.6 13.9 10 17.5
2010-07-01 05:50:55 51°21.085 2°53.436 10.5 14 10 17.6
2010-07-01 05:51:55 51°21.316 2°53.498 10.2 14.1 9 17.3
2010-07-01 05:52:55 51°21.547 2°53.559 10.3 14 10 17.5
2010-07-01 05:53:55 51°21.777 2°53.602 2.3 13.9 -999 18.8
2010-07-01 05:54:55 51°22.01 2°53.602 359.2 14 -999 20
2010-07-01 05:55:55 51°22.243 2°53.601 359.5 14 -999 22.2
2010-07-01 05:56:55 51°22.476 2°53.597 0.1 14 359 23.6
2010-07-01 05:57:55 51°22.711 2°53.599 0.1 14.2 -999 23.3
2010-07-01 05:58:55 51°22.951 2°53.605 359.9 14.3 1 22.2
2010-07-01 05:59:55 51°23.189 2°53.608 0.1 14.2 -999 22.1
2010-07-01 06:00:55 51°23.425 2°53.606 0.4 14.1 359 21.6
2010-07-01 06:01:55 51°23.658 2°53.602 0.6 14 -999 20.5
2010-07-01 06:02:55 51°23.893 2°53.6 1.1 14.2 -999 21.8
2010-07-01 06:03:55 51°24.128 2°53.594 0.2 14.1 358 21.4
2010-07-01 06:04:55 51°24.364 2°53.59 0.3 14.3 359 18.3
2010-07-01 06:05:55 51°24.602 2°53.587 359.6 14.1 358 19
2010-07-01 06:06:55 51°24.837 2°53.579 0.2 14.2 358 19.6
2010-07-01 06:07:55 51°25.073 2°53.569 359.9 14.1 358 21.3
2010-07-01 06:08:55 51°25.307 2°53.557 0.1 14.1 358 21.6
2010-07-01 06:09:55 51°25.541 2°53.548 0.4 14.1 359 25.1
2010-07-01 06:10:55 51°25.778 2°53.537 0.2 14.1 358 27.2
2010-07-01 06:11:55 51°26.013 2°53.527 0.8 14.2 -999 30.8
2010-07-01 06:12:55 51°26.252 2°53.52 0.6 14.4 359 32.3
2010-07-01 06:13:55 51°26.492 2°53.517 0.4 14.4 -999 32.1
2010-07-01 06:14:55 51°26.729 2°53.517 2.2 14.1 1 29.7
2010-07-01 06:15:55 51°26.961 2°53.543 5.9 14 5 27.4
2010-07-01 06:16:55 51°27.193 2°53.568 5.9 14 4 25.2
2010-07-01 06:17:55 51°27.429 2°53.595 5.7 14.4 4 27
2010-07-01 06:18:55 51°27.665 2°53.621 5.4 14.4 4 20.7
2010-07-01 06:19:55 51°27.903 2°53.648 5.6 14.4 5 22.4
2010-07-01 06:20:55 51°28.141 2°53.674 4.9 14.2 3 21.1
2010-07-01 06:24:12 51°28.902 2°53.925 16 14.3 14 26.1
2010-07-01 06:25:13 51°29.137 2°54.014 15.6 14.2 13 27.3
2010-07-01 06:26:12 51°29.362 2°54.097 15.4 14.1 13 28.4
2010-07-01 06:27:13 51°29.596 2°54.186 16.2 14.2 14 30.2
2010-07-01 06:28:13 51°29.826 2°54.276 15.3 14.3 14 32.2
2010-07-01 06:29:13 51°30.059 2°54.375 15.5 14.6 15 32.4
2010-07-01 06:30:13 51°30.294 2°54.477 15 14.6 15 33.9
2010-07-01 06:31:12 51°30.524 2°54.584 18.9 14.4 18 34.5
2010-07-01 06:32:13 51°30.709 2°54.683 16.8 8.6 17 30.6
2010-07-01 06:33:12 51°30.818 2°54.749 21.6 6.3 23 21
2010-07-01 06:34:13 51°30.908 2°54.808 19.6 5.5 21 19.5
2010-07-01 06:35:13 51°30.991 2°54.859 18.9 5.2 21 15.9
2010-07-01 06:36:13 51°31.071 2°54.907 20 5.1 22 19.4
2010-07-01 06:37:13 51°31.149 2°54.956 21 5 22 16.4
2010-07-01 06:38:12 51°31.224 2°55.004 20.3 4.9 21 19.4
2010-07-01 06:39:13 51°31.303 2°55.052 20.6 5 21 19
2010-07-01 06:40:12 51°31.38 2°55.097 19.5 5.1 19 17.9
2010-07-01 06:41:13 51°31.47 2°55.133 5.2 5.8 6 19.8
2010-07-01 06:42:12 51°31.569 2°55.137 356.9 6.2 359 20.1
2010-07-01 06:43:13 51°31.676 2°55.134 358 6.4 359 20.7
2010-07-01 06:44:12 51°31.781 2°55.136 359.6 6.4 -999 20.1
2010-07-01 06:45:13 51°31.89 2°55.14 359.7 6.4 1 19.8
2010-07-01 06:46:12 51°31.995 2°55.141 359.1 6.3 1 19.2
2010-07-01 06:47:13 51°32.102 2°55.144 0.8 6.4 2 22.1
2010-07-01 06:48:13 51°32.209 2°55.15 0.5 6.4 2 23.1
2010-07-01 06:49:12 51°32.314 2°55.154 358.9 6.4 359 22.9
2010-07-01 06:50:13 51°32.415 2°55.15 357.6 5.2 357 22.1
2010-07-01 06:51:12 51°32.479 2°55.144 342.7 3.5 351 20.6
2010-07-01 06:52:13 51°32.531 2°55.118 334.3 2.6 344 23.4
2010-07-01 06:53:12 51°32.569 2°55.101 330.3 2.2 345 22.6
2010-07-01 06:54:12 51°32.601 2°55.09 329 1.9 349 23.3
2010-07-01 06:55:13 51°32.63 2°55.083 328.2 1.7 353 24.3
2010-07-01 06:56:12 51°32.655 2°55.079 323.3 1.5 354 24.7
2010-07-01 06:57:13 51°32.678 2°55.076 319.3 1.3 359 24.6
2010-07-01 06:58:12 51°32.699 2°55.075 317.3 1.7 343 24.4
2010-07-01 06:59:13 51°32.754 2°55.07 16.5 3.8 14 23.4
2010-07-01 07:00:13 51°32.799 2°55.123 66.1 3.2 54 25
2010-07-01 07:01:12 51°32.81 2°55.196 111.4 2.8 93 24.4
2010-07-01 07:02:12 51°32.804 2°55.274 109 3.2 96 23.8
2010-07-01 07:03:12 51°32.799 2°55.365 112.4 3.4 100 25
2010-07-01 07:04:13 51°32.783 2°55.453 123.3 3.4 111 27.3
2010-07-01 07:05:12 51°32.759 2°55.533 131.3 3.3 121 27.4
2010-07-01 07:06:13 51°32.73 2°55.606 134.8 2.8 123 26.6
2010-07-01 07:07:12 51°32.709 2°55.651 145 1.8 128 26.1
2010-07-01 07:08:13 51°32.694 2°55.685 147.8 1.3 122 26.1
2010-07-01 07:09:12 51°32.686 2°55.71 149 0.9 112 25.4
2010-07-01 07:10:12 51°32.683 2°55.729 148.3 0.7 96 25.1
2010-07-01 07:11:12 51°32.681 2°55.748 154.1 1 123 25
2010-07-01 07:12:12 51°32.664 2°55.762 185.2 1.4 176 24.4
2010-07-01 07:13:12 51°32.644 2°55.746 222.2 1.2 228 25.1
2010-07-01 07:14:12 51°32.646 2°55.736 246.5 0.5 342 25.4
2010-07-01 07:15:13 51°32.657 2°55.734 265.5 0.8 -999 25
2010-07-01 07:16:12 51°32.672 2°55.737 292 1 14 24.6
2010-07-01 07:17:13 51°32.687 2°55.745 315.5 1.1 15 24.5
2010-07-01 07:18:12 51°32.712 2°55.731 296.2 1.8 327 23.8
2010-07-01 07:19:13 51°32.733 2°55.71 291.4 1.3 331 23.9
2010-07-01 07:20:12 51°32.75 2°55.697 287.1 1 336 23.3
2010-07-01 07:21:12 51°32.765 2°55.688 284.7 0.9 342 23.3
2010-07-01 07:22:12 51°32.778 2°55.671 272.5 2 288 23.3
2010-07-01 07:23:12 51°32.761 2°55.619 205.5 2 212 23.3
2010-07-01 07:24:13 51°32.736 2°55.606 189.9 1.2 189 25.9
2010-07-01 07:25:12 51°32.721 2°55.608 182.9 0.7 171 26.7
2010-07-01 07:26:13 51°32.712 2°55.616 173.8 0.5 132 26.7
2010-07-01 07:27:12 51°32.709 2°55.628 166.1 0.5 96 26.5
2010-07-01 07:28:13 51°32.71 2°55.642 161.5 0.5 76 26.3
2010-07-01 07:29:12 51°32.714 2°55.654 158.9 0.5 56 25.4
2010-07-01 07:30:12 51°32.721 2°55.666 158.6 0.6 47 23.7
2010-07-01 07:31:13 51°32.729 2°55.678 160.4 0.8 47 23.1
2010-07-01 07:32:12 51°32.737 2°55.687 162 0.8 39 23.7
2010-07-01 07:33:13 51°32.744 2°55.699 164.8 0.6 107 23.7
2010-07-01 07:34:12 51°32.731 2°55.704 195.3 1 192 23.3
2010-07-01 07:35:13 51°32.719 2°55.696 208.6 0.5 223 23.3
2010-07-01 07:36:12 51°32.716 2°55.691 207.1 0.1 242 23.5
2010-07-01 07:37:13 51°32.718 2°55.691 199.9 0.2 45 23.4
2010-07-01 07:38:12 51°32.721 2°55.695 193.7 0.4 35 22.9
2010-07-01 07:39:13 51°32.728 2°55.703 184 0.5 31 23.6
2010-07-01 07:40:12 51°32.737 2°55.711 172.9 0.7 30 23.7
2010-07-01 07:41:12 51°32.745 2°55.719 161.4 0.5 43 22.7
2010-07-01 07:42:13 51°32.745 2°55.731 168 0.5 132 22.1
2010-07-01 07:43:12 51°32.736 2°55.735 189.8 0.6 187 22.6
2010-07-01 07:44:13 51°32.728 2°55.735 186.1 0.3 173 23.4
2010-07-01 07:45:12 51°32.725 2°55.736 185.8 0.1 136 23.3
2010-07-01 07:46:13 51°32.726 2°55.739 187 0.2 47 23.3
2010-07-01 07:47:12 51°32.718 2°55.745 164.2 1 152 23.1
2010-07-01 07:48:13 51°32.704 2°55.777 120.8 1.7 108 23.1
2010-07-01 07:49:12 51°32.709 2°55.827 77.8 2.1 63 22.5
2010-07-01 07:50:12 51°32.734 2°55.867 41.6 2.2 31 20.8
2010-07-01 07:51:13 51°32.766 2°55.891 30.6 2 23 22.5
2010-07-01 07:52:12 51°32.794 2°55.907 24 1.8 17 23.7
2010-07-01 07:53:13 51°32.822 2°55.921 26.2 1.6 17 24.2
2010-07-01 07:54:12 51°32.846 2°55.93 17.9 1.4 10 24.3
2010-07-01 07:55:13 51°32.874 2°55.941 25.5 1.9 17 22.8
2010-07-01 07:56:12 51°32.9 2°55.96 48 1.8 35 23.1
2010-07-01 07:57:13 51°32.921 2°55.991 68.1 1.6 49 25.2
2010-07-01 07:58:12 51°32.935 2°56.019 78 1.2 56 24.7
2010-07-01 07:59:13 51°32.944 2°56.044 87.2 1 56 25
2010-07-01 08:00:13 51°32.956 2°56.073 76.8 1.5 55 25.2
2010-07-01 08:01:12 51°32.977 2°56.105 42.2 2 30 24.4
2010-07-01 08:02:13 51°33.012 2°56.119 5.9 2.2 1 25.2
2010-07-01 08:03:12 51°33.045 2°56.111 340.7 1.8 344 23.8
2010-07-01 08:04:13 51°33.071 2°56.1 339.8 1.5 347 25
2010-07-01 08:05:12 51°33.094 2°56.089 333.2 1.4 343 24.9
2010-07-01 08:06:13 51°33.115 2°56.079 331.1 1.2 345 23.2
2010-07-01 08:07:12 51°33.131 2°56.072 329.5 1 344 24
2010-07-01 08:08:13 51°33.147 2°56.066 328.7 0.9 346 24.3
2010-07-01 08:09:13 51°33.16 2°56.061 327 0.8 347 24.4
2010-07-01 08:10:12 51°33.171 2°56.057 324.4 0.7 348 24.4
2010-07-01 08:11:13 51°33.186 2°56.044 305.8 1.3 319 24.9
2010-07-01 08:12:12 51°33.2 2°56.012 278.5 1.6 294 25
2010-07-01 08:13:13 51°33.204 2°55.968 252.1 1.6 267 24.8
2010-07-01 08:14:12 51°33.201 2°55.934 238.2 1.1 259 24.3
2010-07-01 08:15:13 51°33.197 2°55.905 227.8 1.1 246 23.9
2010-07-01 08:16:12 51°33.186 2°55.883 200.2 0.9 224 23.3
2010-07-01 08:17:13 51°33.178 2°55.874 186.2 0.5 211 24.9
2010-07-01 08:18:12 51°33.173 2°55.872 178.5 0.3 195 25
2010-07-01 08:19:13 51°33.164 2°55.873 172 0.6 171 25.5
2010-07-01 08:20:13 51°33.156 2°55.875 171.6 0.4 168 25.4
2010-07-01 08:21:12 51°33.15 2°55.878 169.1 0.4 154 25.4
2010-07-01 08:22:13 51°33.144 2°55.884 164.9 0.5 140 25.4
2010-07-01 08:23:12 51°33.137 2°55.891 161.2 0.6 144 25.7
2010-07-01 08:24:13 51°33.128 2°55.901 159.4 0.7 146 25.7
2010-07-01 08:25:12 51°33.117 2°55.909 161.9 0.8 151 25.4
2010-07-01 08:26:13 51°33.108 2°55.917 164.7 0.5 152 25.2
2010-07-01 08:27:12 51°33.103 2°55.922 162.9 0.3 140 25.4
2010-07-01 08:28:13 51°33.101 2°55.926 161.1 0.2 111 25.6
2010-07-01 08:29:13 51°33.101 2°55.93 159 0.2 80 25.3
2010-07-01 08:30:12 51°33.102 2°55.933 158.5 0.1 63 25
2010-07-01 08:31:13 51°33.104 2°55.936 159.2 0.1 26 25.4
2010-07-01 08:32:12 51°33.104 2°55.936 159.7 0.2 35 24.9
2010-07-01 08:33:13 51°33.108 2°55.939 156.4 0.2 32 25.1
2010-07-01 08:34:12 51°33.112 2°55.942 152 0.3 21 24.8
2010-07-01 08:35:12 51°33.116 2°55.944 145.5 0.3 19 24.1
2010-07-01 08:36:12 51°33.121 2°55.946 140.6 0.3 12 24.2
2010-07-01 08:37:12 51°33.126 2°55.947 135.1 0.3 2 23.5
2010-07-01 08:38:13 51°33.131 2°55.948 131.1 0.3 359 23.5
2010-07-01 08:39:12 51°33.137 2°55.948 128.9 0.4 15 22.7
2010-07-01 08:40:13 51°33.142 2°55.945 127.8 0.6 325 22.6
2010-07-01 08:41:12 51°33.15 2°55.935 117.2 0.6 319 22.5
2010-07-01 08:42:13 51°33.156 2°55.926 108.8 0.5 316 22.1
2010-07-01 08:43:12 51°33.161 2°55.918 104.1 0.4 315 22.4
2010-07-01 08:44:13 51°33.166 2°55.911 103.5 0.4 321 22.4
2010-07-01 08:45:12 51°33.171 2°55.905 106.2 0.3 318 22.1
2010-07-01 08:46:12 51°33.174 2°55.901 111.5 0.2 314 21.8
2010-07-01 08:47:12 51°33.177 2°55.897 117.1 0.2 318 21.8
2010-07-01 08:48:12 51°33.179 2°55.895 124.1 0.1 315 22
2010-07-01 08:49:13 51°33.175 2°55.902 123.2 0.8 131 21.5
2010-07-01 08:50:12 51°33.16 2°55.918 149.8 1.2 162 23
2010-07-01 08:51:13 51°33.144 2°55.926 153.8 0.8 168 23.7
2010-07-01 08:52:12 51°33.132 2°55.931 152.2 0.6 170 24.1
2010-07-01 08:53:13 51°33.125 2°55.934 149.1 0.5 170 24.3
2010-07-01 08:54:12 51°33.119 2°55.936 148.5 0.4 179 24.3
2010-07-01 08:55:12 51°33.114 2°55.936 148.6 0.2 164 25
2010-07-01 08:56:13 51°33.093 2°55.941 176.7 2.5 185 24.9
2010-07-01 08:57:12 51°33.068 2°55.93 207.6 0.9 206 24.8
2010-07-01 08:58:13 51°33.051 2°55.908 232.4 1.3 226 24.5
2010-07-01 08:59:12 51°33.041 2°55.879 258.2 1.2 261 22.8
2010-07-01 09:00:13 51°33.039 2°55.85 278.7 1.1 270 24.1
2010-07-01 09:01:12 51°33.039 2°55.809 260.8 2 261 23.5
2010-07-01 09:02:13 51°33.023 2°55.749 238.4 2.8 239 25.2
2010-07-01 09:03:12 51°32.99 2°55.688 220.1 3.3 223 23.8
2010-07-01 09:04:13 51°32.938 2°55.62 215.7 4.4 218 23.5
2010-07-01 09:05:13 51°32.885 2°55.562 200.9 3.3 205 23.1
2010-07-01 09:06:12 51°32.833 2°55.547 177.7 3.7 182 23.5
2010-07-01 09:07:13 51°32.774 2°55.544 178.6 3.3 186 25.3
2010-07-01 09:08:12 51°32.728 2°55.513 214.2 2.6 216 26.7
2010-07-01 09:09:13 51°32.705 2°55.479 229.3 1.6 227 22.8
2010-07-01 09:10:12 51°32.69 2°55.452 238.4 1.3 232 21.6
2010-07-01 09:11:13 51°32.681 2°55.427 252.7 0.9 243 23.7
2010-07-01 09:12:12 51°32.676 2°55.408 272.9 0.7 246 23.5
2010-07-01 09:13:16 51°32.673 2°55.391 293.8 0.5 258 23.2
2010-07-01 09:14:15 51°32.672 2°55.378 308.4 0.5 261 22.9
2010-07-01 09:15:14 51°32.67 2°55.367 321.2 0.5 255 22.6
2010-07-01 09:16:13 51°32.668 2°55.355 331.8 0.5 259 21.5
2010-07-01 09:17:12 51°32.666 2°55.344 336.1 0.4 253 20.9
2010-07-01 09:18:13 51°32.663 2°55.333 337.3 0.4 248 22.1
2010-07-01 09:19:12 51°32.66 2°55.324 335.8 0.5 246 22.4
2010-07-01 09:20:13 51°32.657 2°55.313 333.2 0.4 246 22.6
2010-07-01 09:21:12 51°32.654 2°55.304 331.8 0.4 247 23.1
2010-07-01 09:22:12 51°32.651 2°55.296 332.5 0.4 234 23.2
2010-07-01 09:23:12 51°32.646 2°55.286 331.9 0.4 226 23.2
2010-07-01 09:24:12 51°32.643 2°55.279 329.4 0.4 232 22.9
2010-07-01 09:25:13 51°32.637 2°55.269 326.5 0.5 228 23.4
2010-07-01 09:26:12 51°32.632 2°55.26 325.1 0.4 229 23.5
2010-07-01 09:27:13 51°32.625 2°55.25 325.6 0.5 225 23.2
2010-07-01 09:28:12 51°32.619 2°55.24 325.3 0.5 223 22.5
2010-07-01 09:29:13 51°32.613 2°55.23 326.2 0.6 225 21.5
2010-07-01 09:30:12 51°32.605 2°55.22 326.1 0.6 224 20.1
2010-07-01 09:31:12 51°32.597 2°55.208 328.2 0.6 221 21.1
2010-07-01 09:32:12 51°32.589 2°55.199 328.5 0.6 217 22.4
2010-07-01 09:33:12 51°32.596 2°55.176 337.5 2.3 320 22.4
2010-07-01 09:34:13 51°32.645 2°55.161 20.4 3.1 15 21.6
2010-07-01 09:35:12 51°32.679 2°55.185 34.8 1.8 29 23
2010-07-01 09:36:13 51°32.701 2°55.206 34.5 1.2 29 23.7
2010-07-01 09:37:12 51°32.715 2°55.215 26.3 0.8 10 23.7
2010-07-01 09:38:13 51°32.726 2°55.215 19 0.6 355 23.7
2010-07-01 09:39:12 51°32.735 2°55.213 15.5 0.9 356 23.6
2010-07-01 09:40:12 51°32.754 2°55.214 21.6 1 8 22
2010-07-01 09:41:12 51°32.769 2°55.213 15.3 0.9 351 21.6
2010-07-01 09:42:12 51°32.784 2°55.213 27.9 0.8 15 23.1
2010-07-01 09:43:13 51°32.795 2°55.226 39.1 0.9 36 23.4
2010-07-01 09:44:12 51°32.81 2°55.238 30.2 0.9 18 23.7
2010-07-01 09:45:13 51°32.822 2°55.242 21.2 0.6 1 23.3
2010-07-01 09:46:12 51°32.833 2°55.235 3.8 0.8 321 23
2010-07-01 09:47:13 51°32.843 2°55.214 345.6 0.9 292 23.4
2010-07-01 09:48:12 51°32.846 2°55.188 336.1 1.1 277 23.7
2010-07-01 09:49:13 51°32.85 2°55.151 310.8 1.8 269 24.4
2010-07-01 09:50:12 51°32.828 2°55.05 232.3 6.1 225 24.8
2010-07-01 09:51:12 51°32.734 2°55.043 139.9 5.6 152 23.7
2010-07-01 09:52:12 51°32.668 2°55.162 115.4 6.8 124 21.1
2010-07-01 09:53:12 51°32.62 2°55.304 101.7 3.9 115 23.9
2010-07-01 09:54:13 51°32.604 2°55.342 104.4 1.1 152 23.5
2010-07-01 09:55:12 51°32.591 2°55.335 113.8 1 227 23.3
2010-07-01 09:56:12 51°32.58 2°55.318 108.4 0.8 221 22.9
2010-07-01 09:57:12 51°32.571 2°55.307 92.9 0.6 198 22.7
2010-07-01 09:58:13 51°32.565 2°55.312 74.5 0.6 123 22.4
2010-07-01 09:59:12 51°32.561 2°55.328 69.6 0.7 111 22.8
2010-07-01 10:00:12 51°32.56 2°55.344 60 0.5 87 22.1
2010-07-01 10:01:13 51°32.562 2°55.353 46.2 0.3 74 22.3
2010-07-01 10:02:12 51°32.565 2°55.354 36.1 0.1 340 22.7
2010-07-01 10:03:13 51°32.565 2°55.351 30.2 0.1 271 22.6
2010-07-01 10:04:12 51°32.564 2°55.346 26.2 0.2 249 22.2
2010-07-01 10:05:13 51°32.562 2°55.338 19.7 0.4 256 22.2
2010-07-01 10:06:12 51°32.56 2°55.331 18.2 0.3 251 22.4
2010-07-01 10:07:12 51°32.559 2°55.325 19.7 0.2 281 22.5
2010-07-01 10:08:12 51°32.562 2°55.321 19.7 0.2 337 22.7
2010-07-01 10:09:12 51°32.565 2°55.317 20.9 0.2 333 22.9
2010-07-01 10:10:12 51°32.568 2°55.316 23.7 0.1 23 22.7
2010-07-01 10:11:12 51°32.569 2°55.316 26 -999 22 22.6
2010-07-01 10:12:13 51°32.569 2°55.315 27.4 0.1 184 22.6
2010-07-01 10:13:12 51°32.567 2°55.315 28.8 0.1 250 22.8
2010-07-01 10:14:13 51°32.566 2°55.314 30.5 0.1 201 22.9
2010-07-01 10:15:12 51°32.565 2°55.315 33.1 0.1 133 22.8
2010-07-01 10:16:12 51°32.563 2°55.317 34.4 0.1 124 22.8
2010-07-01 10:17:12 51°32.563 2°55.318 33.1 0.1 129 22.7
2010-07-01 10:18:12 51°32.562 2°55.318 33 -999 150 22.7
2010-07-01 10:19:13 51°32.563 2°55.318 30.2 0.1 309 22.7
2010-07-01 10:20:12 51°32.563 2°55.318 32.3 -999 359 22.8
2010-07-01 10:21:13 51°32.563 2°55.318 31.4 0.1 308 22.8
2010-07-01 10:22:12 51°32.564 2°55.318 31.1 0.1 301 22.9
2010-07-01 10:23:13 51°32.564 2°55.317 29 0.1 320 22.9
2010-07-01 10:24:12 51°32.565 2°55.316 30.6 0.1 135 23.1
2010-07-01 10:25:12 51°32.564 2°55.317 32.6 -999 250 22.8
2010-07-01 10:26:12 51°32.563 2°55.317 33.6 0.1 162 22.9
2010-07-01 10:27:12 51°32.563 2°55.317 35.1 0.1 136 22.7
2010-07-01 10:28:12 51°32.562 2°55.319 36 0.1 130 22.6
2010-07-01 10:29:12 51°32.562 2°55.32 33 -999 103 22.9
2010-07-01 10:30:13 51°32.562 2°55.32 30.2 0.1 297 22.8
2010-07-01 10:31:12 51°32.562 2°55.319 28.2 -999 302 22.8
2010-07-01 10:32:13 51°32.563 2°55.317 27.7 0.1 306 22.9
2010-07-01 10:33:12 51°32.564 2°55.316 29.2 0.1 355 22.9
2010-07-01 10:34:13 51°32.565 2°55.317 31.1 0.1 118 23
2010-07-01 10:35:12 51°32.564 2°55.317 31.8 -999 220 23
2010-07-01 10:36:12 51°32.563 2°55.317 32.7 0.1 164 22.9
2010-07-01 10:37:12 51°32.562 2°55.319 32.9 0.1 148 22.8
2010-07-01 10:38:12 51°32.562 2°55.319 32 -999 143 22.8
2010-07-01 10:39:13 51°32.562 2°55.318 30.7 -999 317 22.8
2010-07-01 10:40:12 51°32.563 2°55.317 29.3 0.1 348 22.9
2010-07-01 10:41:13 51°32.565 2°55.316 30.1 0.1 306 23
2010-07-01 10:42:12 51°32.565 2°55.316 34.2 -999 92 23
2010-07-01 10:43:13 51°32.564 2°55.317 35.1 -999 186 23.1
2010-07-01 10:44:12 51°32.563 2°55.318 36.4 0.1 164 22.9
2010-07-01 10:45:12 51°32.561 2°55.32 36.4 0.1 148 22.8
2010-07-01 10:46:12 51°32.561 2°55.32 33.9 -999 13 22.8
2010-07-01 10:47:12 51°32.562 2°55.32 32.7 -999 24 22.9
2010-07-01 10:48:12 51°32.562 2°55.32 31.7 -999 202 23
2010-07-01 10:49:12 51°32.562 2°55.318 29.3 0.1 287 22.9
2010-07-01 10:50:12 51°32.563 2°55.316 30 -999 325 22.8
2010-07-01 10:51:12 51°32.564 2°55.316 31.1 -999 1 23
2010-07-01 10:52:12 51°32.565 2°55.316 30.2 0.1 304 23.1
2010-07-01 10:53:12 51°32.565 2°55.315 32.6 0.1 139 23.1
2010-07-01 10:54:12 51°32.563 2°55.315 34.4 0.1 139 23
2010-07-01 10:55:12 51°32.563 2°55.316 34.2 0.1 121 22.9
2010-07-01 10:56:12 51°32.563 2°55.317 36.1 -999 69 22.9
2010-07-01 10:57:12 51°32.562 2°55.319 35.5 0.1 149 22.9
2010-07-01 10:58:12 51°32.562 2°55.319 34.6 -999 271 22.9
2010-07-01 10:59:12 51°32.561 2°55.319 34.1 -999 192 22.8
2010-07-01 11:00:12 51°32.562 2°55.319 32.7 0.1 318 22.9
2010-07-01 11:01:12 51°32.563 2°55.317 29.4 0.1 324 22.9
2010-07-01 11:02:12 51°32.563 2°55.316 32.2 -999 1 22.9
2010-07-01 11:03:12 51°32.563 2°55.317 33 -999 54 23.1
2010-07-01 11:04:12 51°32.563 2°55.317 32.3 -999 155 23
2010-07-01 11:05:12 51°32.563 2°55.317 33.5 -999 138 22.9
2010-07-01 11:06:12 51°32.563 2°55.317 33.8 -999 347 23
2010-07-01 11:07:12 51°32.562 2°55.319 33.3 -999 133 23.1
2010-07-01 11:08:12 51°32.562 2°55.319 31.5 -999 102 22.9
2010-07-01 11:09:12 51°32.562 2°55.319 32.7 -999 126 22.9
2010-07-01 11:10:12 51°32.562 2°55.318 29.9 0.1 323 22.9
2010-07-01 11:11:12 51°32.564 2°55.317 30.6 0.1 4 22.9
2010-07-01 11:12:12 51°32.563 2°55.318 32.3 -999 226 23.1
2010-07-01 11:13:12 51°32.563 2°55.316 29.2 0.1 233 23.1
2010-07-01 11:14:12 51°32.564 2°55.315 31.9 -999 321 23
2010-07-01 11:15:12 51°32.564 2°55.316 32.6 -999 79 23.1
2010-07-01 11:16:12 51°32.564 2°55.316 33.2 -999 127 22.9
2010-07-01 11:17:12 51°32.564 2°55.316 31.4 -999 244 22.9
2010-07-01 11:18:12 51°32.564 2°55.314 31.6 0.1 319 23.1
2010-07-01 11:19:12 51°32.564 2°55.315 34.6 -999 67 23
2010-07-01 11:20:12 51°32.563 2°55.317 35.5 0.1 144 23.2
2010-07-01 11:21:12 51°32.562 2°55.318 34.6 0.1 165 22.9
2010-07-01 11:22:12 51°32.562 2°55.318 33.3 0.1 346 22.8
2010-07-01 11:23:12 51°32.562 2°55.318 32.1 0.1 53 23
2010-07-01 11:24:12 51°32.562 2°55.32 34.7 -999 110 23.1
2010-07-01 11:25:12 51°32.562 2°55.32 31.7 0.1 287 23.1
2010-07-01 11:26:12 51°32.562 2°55.317 27.7 0.1 306 22.9
2010-07-01 11:27:12 51°32.563 2°55.318 31.7 0.1 37 23.1
2010-07-01 11:28:12 51°32.564 2°55.317 31.8 -999 289 23.3
2010-07-01 11:29:12 51°32.564 2°55.316 30 -999 267 23
2010-07-01 11:30:12 51°32.565 2°55.314 31.4 -999 46 23.1
2010-07-01 11:31:12 51°32.565 2°55.315 33.6 -999 35 23.1
2010-07-01 11:32:12 51°32.564 2°55.317 33.8 0.1 142 23.1
2010-07-01 11:33:12 51°32.563 2°55.317 33.9 0.1 133 23.1
2010-07-01 11:34:12 51°32.563 2°55.317 32.9 -999 341 23.1
2010-07-01 11:35:12 51°32.564 2°55.316 31.6 -999 18 23.1
2010-07-01 11:36:12 51°32.564 2°55.315 30.9 0.2 302 23.1
2010-07-01 11:37:12 51°32.564 2°55.316 34.7 -999 96 23.3
2010-07-01 11:38:12 51°32.569 2°55.323 35.6 0.6 44 23.5
2010-07-01 11:39:12 51°32.579 2°55.336 35.7 0.9 33 23.5
2010-07-01 11:40:12 51°32.593 2°55.345 28.2 0.8 7 23.7
2010-07-01 11:41:12 51°32.604 2°55.343 21.6 0.6 346 24.1
2010-07-01 11:42:12 51°32.633 2°55.323 344.1 3.8 323 23.1
2010-07-01 11:43:12 51°32.656 2°55.193 273.7 6.3 259 23.2
2010-07-01 11:44:12 51°32.582 2°55.02 228.6 11.1 227 20.6
2010-07-01 11:45:12 51°32.41 2°54.769 222.9 14.8 222 21
2010-07-01 11:46:12 51°32.229 2°54.499 223.6 15 223 19.8
2010-07-01 11:47:12 51°32.047 2°54.226 224.7 14.9 223 20.7
2010-07-01 11:48:12 51°31.868 2°53.952 225 14.9 224 19
2010-07-01 11:49:12 51°31.689 2°53.676 225.3 14.9 224 21.6
2010-07-01 11:50:12 51°31.508 2°53.403 225 15 224 21.3
2010-07-01 11:51:12 51°31.328 2°53.127 225.3 15 224 18.8
2010-07-01 11:52:12 51°31.148 2°52.853 225 14.9 223 18.2
2010-07-01 11:53:13 51°30.965 2°52.576 225.1 14.8 224 20.4
2010-07-01 11:54:12 51°30.789 2°52.308 225 14.8 224 18.6
2010-07-01 11:55:12 51°30.609 2°52.036 225.4 14.8 223 19.4
2010-07-01 11:56:12 51°30.431 2°51.763 225.7 14.8 224 20.5
2010-07-01 11:57:12 51°30.252 2°51.492 225.3 14.7 223 26.1
2010-07-01 11:58:12 51°30.077 2°51.219 225.6 14.6 225 28.2
2010-07-01 11:59:12 51°29.901 2°50.946 225.1 14.7 225 29.5
2010-07-01 12:00:12 51°29.725 2°50.672 225.3 14.8 226 28.8
2010-07-01 12:01:12 51°29.55 2°50.397 225.1 14.7 224 31
2010-07-01 12:02:13 51°29.372 2°50.116 225.1 14.8 226 30.5
2010-07-01 12:03:12 51°29.199 2°49.842 225 14.9 225 30.4
2010-07-01 12:04:12 51°29.028 2°49.557 225.1 14.9 226 28.3
2010-07-01 12:05:12 51°28.856 2°49.269 225.4 14.9 226 27.1
2010-07-01 12:06:12 51°28.683 2°48.98 225.1 15 227 29.5
2010-07-01 12:07:12 51°28.512 2°48.689 225.1 15 227 29.5
2010-07-01 12:08:12 51°28.341 2°48.394 225.4 15.1 226 28.5
2010-07-01 12:09:12 51°28.17 2°48.099 225.3 15.1 227 32.7
2010-07-01 12:10:12 51°27.998 2°47.804 225.6 15.1 228 28.8
2010-07-01 12:11:12 51°27.826 2°47.507 224.9 15.2 228 30.4
2010-07-01 12:12:12 51°27.654 2°47.211 225 15.2 227 30.7
2010-07-01 12:13:13 51°27.48 2°46.908 225.2 15.1 227 30.8
2010-07-01 12:14:12 51°27.312 2°46.617 225.6 15.1 227 31.5
2010-07-01 12:15:12 51°27.137 2°46.328 220.5 15 222 31.5
2010-07-01 12:16:12 51°26.953 2°46.054 219.8 15.1 224 30
2010-07-01 12:17:12 51°26.77 2°45.779 219.7 15.1 223 29.5
2010-07-01 12:18:12 51°26.58 2°45.518 214.1 15.1 218 28.7
2010-07-01 12:19:12 51°26.383 2°45.272 214.6 15 218 28
2010-07-01 12:20:12 51°26.186 2°45.024 215.4 15.1 219 26
2010-07-01 12:21:12 51°25.989 2°44.776 214.9 15 218 26.8
2010-07-01 12:22:13 51°25.785 2°44.537 210.1 14.9 211 25.3
2010-07-01 12:23:12 51°25.577 2°44.332 209.1 14.9 212 23.8
2010-07-01 12:24:12 51°25.365 2°44.122 209.3 15 212 23.7
2010-07-01 12:25:12 51°25.153 2°43.912 209.6 15 212 23
2010-07-01 12:26:12 51°24.923 2°43.779 189.5 14.7 193 23.7
2010-07-01 12:27:12 51°24.71 2°43.709 185.6 9.4 192 24.1
2010-07-01 12:28:12 51°24.601 2°43.639 199.5 5.9 202 24.1
2010-07-01 12:29:12 51°24.529 2°43.663 114.6 3.6 129 22.3
2010-07-01 12:30:12 51°24.544 2°43.727 32.5 3.3 23 24.6
2010-07-01 12:31:12 51°24.593 2°43.706 342.5 3.1 323 23.4
2010-07-01 12:32:12 51°24.632 2°43.674 14.2 2 352 23.5
2010-07-01 12:33:12 51°24.656 2°43.682 41.4 1.1 31 21.5
2010-07-01 12:34:12 51°24.668 2°43.704 51 1.1 53 21.6
2010-07-01 12:35:12 51°24.682 2°43.723 35.6 0.9 29 24
2010-07-01 12:36:12 51°24.695 2°43.735 44.8 0.8 36 23.5
2010-07-01 12:37:12 51°24.693 2°43.731 39.2 0.9 226 23.9
2010-07-01 12:38:12 51°24.682 2°43.714 37.2 0.9 225 24.4
2010-07-01 12:39:12 51°24.671 2°43.696 32.1 1 226 23.7
2010-07-01 12:40:13 51°24.66 2°43.679 27.6 0.5 236 20.2
2010-07-01 12:41:12 51°24.664 2°43.687 60.1 1.1 72 21.3
2010-07-01 12:42:13 51°24.675 2°43.717 48 1.1 49 21.5
2010-07-01 12:43:12 51°24.69 2°43.738 48.4 1.3 55 23.3
2010-07-01 12:44:12 51°24.684 2°43.731 52.8 1.7 226 23.6
2010-07-01 12:45:16 51°24.664 2°43.698 55.1 1.6 227 22.4
2010-07-01 12:46:15 51°24.647 2°43.669 55.5 1.5 227 23
2010-07-01 12:47:14 51°24.644 2°43.67 47.6 1.7 50 23.5
2010-07-01 12:48:13 51°24.667 2°43.699 37.1 1.8 34 22.6
2010-07-01 12:49:12 51°24.686 2°43.728 47.3 1.2 47 23.8
2010-07-01 12:50:12 51°24.683 2°43.723 59.6 1.3 229 24.1
2010-07-01 12:51:16 51°24.669 2°43.698 56.1 0.9 227 22.8
2010-07-01 12:52:15 51°24.659 2°43.681 50.4 0.9 220 20.7
2010-07-01 12:53:13 51°24.65 2°43.666 46.7 0.7 218 22.9
2010-07-01 12:54:12 51°24.652 2°43.67 44.3 1.3 41 22.8
2010-07-01 12:55:12 51°24.676 2°43.712 47.8 2.1 44 23.3
2010-07-01 12:56:12 51°24.696 2°43.742 49.4 1.2 49 23.2
2010-07-01 12:57:12 51°24.696 2°43.739 67.6 1.1 239 23.8
2010-07-01 12:58:16 51°24.687 2°43.719 73.2 0.8 230 -999
2010-07-01 12:59:16 51°24.679 2°43.703 67.8 0.8 235 24.8
2010-07-01 13:00:16 51°24.671 2°43.684 52.5 0.9 234 23.3
2010-07-01 13:01:14 51°24.668 2°43.672 42.2 0.6 26 20.1
2010-07-01 13:02:14 51°24.679 2°43.705 64.9 1.4 63 24.8
2010-07-01 13:03:12 51°24.692 2°43.73 55.3 1.2 46 23.8
2010-07-01 13:04:12 51°24.702 2°43.749 61.1 0.3 34 23
2010-07-01 13:05:12 51°24.706 2°43.749 71.4 0.2 23 22.8
2010-07-01 13:06:12 51°24.706 2°43.75 73.5 0.1 332 22.4
2010-07-01 13:07:12 51°24.706 2°43.754 94.2 0.5 253 22.4
2010-07-01 13:08:12 51°24.706 2°43.743 92.6 0.5 253 23.5
2010-07-01 13:09:12 51°24.704 2°43.731 82 0.5 257 24
2010-07-01 13:10:12 51°24.702 2°43.718 70.5 0.5 265 24.6
2010-07-01 13:11:12 51°24.701 2°43.703 60.5 0.6 262 24.7
2010-07-01 13:12:12 51°24.698 2°43.688 53.3 0.6 258 25.1
2010-07-01 13:13:12 51°24.701 2°43.683 60.1 0.6 50 24.9
2010-07-01 13:14:12 51°24.705 2°43.712 89.9 1.5 93 25
2010-07-01 13:15:12 51°24.689 2°43.755 131.2 2.2 144 23.1
2010-07-01 13:16:12 51°24.648 2°43.784 153.1 3.1 161 23.9
2010-07-01 13:17:12 51°24.534 2°43.866 152 11.4 154 26.6
2010-07-01 13:18:12 51°24.338 2°44.004 154.7 13.4 158 26.6
2010-07-01 13:19:12 51°24.147 2°44.18 146 13.2 147 28.6
2010-07-01 13:20:12 51°23.962 2°44.373 145.2 13.2 147 28.3
2010-07-01 13:21:12 51°23.775 2°44.561 145.9 13.3 148 27.2
2010-07-01 13:22:12 51°23.588 2°44.746 145.7 13.3 149 28
2010-07-01 13:23:12 51°23.401 2°44.937 146.1 13.4 148 28.4
2010-07-01 13:24:12 51°23.211 2°45.121 146.8 13.3 148 28.2
2010-07-01 13:25:12 51°23.022 2°45.307 146.1 13.3 148 28.3
2010-07-01 13:26:12 51°22.835 2°45.498 146 13.3 148 28
2010-07-01 13:27:12 51°22.645 2°45.686 145.8 13.5 149 26.1
2010-07-01 13:28:12 51°22.456 2°45.878 146.7 13.5 147 22.3
2010-07-01 13:29:12 51°22.264 2°46.071 146.2 13.7 147 21.9
2010-07-01 13:30:12 51°22.072 2°46.269 145.7 13.8 146 22.3
2010-07-01 13:31:12 51°21.879 2°46.474 146.3 13.9 147 24.9
2010-07-01 13:32:12 51°21.686 2°46.68 146 14 145 26.3
2010-07-01 13:33:12 51°21.506 2°46.914 139.7 14 137 25.6
2010-07-01 13:34:12 51°21.329 2°47.156 142.1 13.8 141 25.1
2010-07-01 13:35:12 51°21.148 2°47.369 144.8 13.5 144 20.5
2010-07-01 13:36:12 51°20.966 2°47.576 144.7 13.5 145 21.2
2010-07-01 13:37:12 51°20.784 2°47.785 144 13.5 144 20.3
2010-07-01 13:38:12 51°20.601 2°47.992 144.9 13.4 145 21.8
2010-07-01 13:39:12 51°20.421 2°48.2 144 13.4 144 23.3
2010-07-01 13:40:12 51°20.24 2°48.408 144.2 13.4 145 23.9
2010-07-01 13:41:12 51°20.057 2°48.617 144.3 13.5 144 23.7
2010-07-01 13:42:12 51°19.875 2°48.828 144.1 13.5 143 22.2
2010-07-01 13:43:12 51°19.691 2°49.042 145 13.6 144 19.6
2010-07-01 13:44:12 51°19.508 2°49.258 143.8 13.7 145 16.8
2010-07-01 13:45:12 51°19.324 2°49.475 144 13.8 143 15.5
2010-07-01 13:46:12 51°19.141 2°49.699 144.5 13.9 142 13.6
2010-07-01 13:47:12 51°18.957 2°49.923 144.3 14 143 13.7
2010-07-01 13:48:12 51°18.759 2°50.118 151.2 13.9 150 15.2
2010-07-01 13:49:12 51°18.558 2°50.302 151.1 14 150 16.1
2010-07-01 13:50:12 51°18.359 2°50.487 150.4 13.8 150 15.8
2010-07-01 13:51:12 51°18.159 2°50.677 150.4 13.9 150 15
2010-07-01 13:52:12 51°17.96 2°50.865 150.4 13.9 149 14.1
2010-07-01 13:53:12 51°17.762 2°51.055 150 13.8 148 12.5
2010-07-01 13:54:12 51°17.565 2°51.246 150.9 13.7 149 11.2
2010-07-01 13:55:12 51°17.368 2°51.44 150.3 14 149 13
2010-07-01 13:56:12 51°17.172 2°51.637 147.6 13.9 145 12.9
2010-07-01 13:57:12 51°16.99 2°51.863 142.4 13.9 138 12.7
2010-07-01 13:58:12 51°16.815 2°52.105 141.6 13.8 140 12.9
2010-07-01 13:59:12 51°16.638 2°52.344 141.8 14 140 13
2010-07-01 14:00:12 51°16.463 2°52.588 141.9 14 139 13.8
2010-07-01 14:01:12 51°16.288 2°52.834 142.8 13.9 140 14
2010-07-01 14:02:12 51°16.112 2°53.075 143.1 13.9 139 13.9
2010-07-01 14:03:12 51°15.933 2°53.309 146 13.9 142 13.8
2010-07-01 14:04:12 51°15.75 2°53.53 144.9 13.8 141 13.6
2010-07-01 14:05:12 51°15.569 2°53.754 145.2 13.8 143 13.3
2010-07-01 14:06:12 51°15.389 2°53.976 145.2 13.6 142 12.9
2010-07-01 14:07:12 51°15.21 2°54.197 146 13.6 142 12.6
2010-07-01 14:08:12 51°15.03 2°54.412 147.4 13.5 143 12.1
2010-07-01 14:09:12 51°14.85 2°54.625 147.4 13.4 144 13.2
2010-07-01 14:10:12 51°14.668 2°54.828 147.2 13.3 142 13.8
2010-07-01 14:11:12 51°14.496 2°55.055 146 13.3 140 13.4
2010-07-01 14:12:13 51°14.341 2°55.214 150.8 8.3 151 13
2010-07-01 14:13:16 51°14.228 2°55.316 149.6 7.2 151 -999
2010-07-01 14:14:16 51°14.117 2°55.407 153.4 8.3 154 12.6
2010-07-01 14:15:13 51°13.993 2°55.5 154.2 8 155 12.5
2010-07-01 14:16:12 51°13.889 2°55.578 154.5 6.9 156 12.9
2010-07-01 14:17:12 51°13.799 2°55.653 145.8 5.5 145 13.9
2010-07-01 14:18:12 51°13.739 2°55.752 129.8 5 130 13.6
2010-07-01 14:19:12 51°13.695 2°55.842 120.2 3.6 120 12.3
2010-07-01 14:20:12 51°13.676 2°55.912 113.2 2.3 113 10.7
2010-07-01 14:21:12 51°13.663 2°55.956 114.8 0.9 122 8.6